Terminal Aerodrome Forecast
Issued by NWS

Home | Current Version | Previous Version | Text Only | Print | Product List | Glossary On
Versions: 1 2 3 4 5 6 7 8 9 10 11 12 13 14 15 16 17 18 19
000
FTUS43 KMPX 280400 AAB
TAFAXN
TAF AMD
KAXN 280442Z 2805/2824 12011KT 1 1/2SM -SN SCT010 OVC020
      TEMPO 2805/2808 3/4SM -SN OVC010
     FM280800 14011KT 6SM -SN SCT006 OVC012
     FM281500 12007KT P6SM OVC015=

USA.gov is the U.S. government's official web portal to all federal, state and local government web resources and services.